Time;durP1;ratioP1;P1;durP2;ratioP2;P2;SDS_P1;SDS_P2;PMS_P1;PMS_P2;Temp;Humidity;BMP_temperature;BMP_pressure;BME280_temperature;BME280_humidity;BME280_pressure;Samples;Min_cycle;Max_cycle;Signal;HPM_P1;HPM_P2
2023/03/28 00:01:42;;;;;;;3.13;2.83;;;;;;;12.09;55.67;98108.72;4974238;28;20042;-78
2023/03/28 00:04:10;;;;;;;3.10;2.80;;;;;;;11.80;55.45;98045.97;4974460;28;20034;-79
2023/03/28 00:06:37;;;;;;;3.25;2.95;;;;;;;12.08;55.64;98096.50;4972968;28;20037;-79
2023/03/28 00:09:06;;;;;;;2.80;2.60;;;;;;;11.75;55.21;98036.03;4974401;28;20054;-79
2023/03/28 00:11:32;;;;;;;2.90;2.70;;;;;;;12.08;55.58;98107.91;4974145;28;20027;-79
2023/03/28 00:13:59;;;;;;;2.67;2.47;;;;;;;11.64;55.22;98034.94;4974264;28;20029;-79
2023/03/28 00:16:30;;;;;;;2.65;2.45;;;;;;;12.17;54.78;98110.25;4974107;28;20508;-79
2023/03/28 00:18:59;;;;;;;3.00;2.80;;;;;;;12.13;54.96;98104.59;4974134;28;20035;-78
2023/03/28 00:21:28;;;;;;;2.60;2.40;;;;;;;11.76;54.62;98061.44;4974215;28;20041;-78
2023/03/28 00:24:01;;;;;;;2.92;2.60;;;;;;;12.13;54.34;98115.16;4973941;28;20038;-79
2023/03/28 00:26:29;;;;;;;2.92;2.72;;;;;;;11.74;54.41;98048.44;4973939;28;20085;-79
2023/03/28 00:28:55;;;;;;;2.60;2.40;;;;;;;11.32;54.74;97989.38;4974180;28;20089;-79
2023/03/28 00:31:24;;;;;;;2.60;2.40;;;;;;;12.00;54.07;98084.41;4972821;28;20089;-79
2023/03/28 00:33:49;;;;;;;2.75;2.50;;;;;;;12.07;54.60;98086.97;4973992;28;20030;-79
2023/03/28 00:36:25;;;;;;;2.65;2.45;;;;;;;11.60;54.08;98031.13;4973923;28;20420;-80
2023/03/28 00:39:05;;;;;;;2.08;1.98;;;;;;;11.74;54.10;98048.44;4988848;28;20030;-79
2023/03/28 00:41:32;;;;;;;2.10;1.92;;;;;;;12.06;53.92;98091.44;4973837;28;20027;-80
2023/03/28 00:43:59;;;;;;;2.95;2.20;;;;;;;11.46;53.62;97976.81;4973689;28;20042;-78
2023/03/28 00:46:34;;;;;;;2.25;2.10;;;;;;;11.78;53.80;98044.34;4973588;28;20412;-78
2023/03/28 00:49:09;;;;;;;2.25;2.15;;;;;;;12.10;53.92;98091.81;4973609;28;20031;-78
2023/03/28 00:51:39;;;;;;;2.47;2.28;;;;;;;12.16;53.49;98093.56;4973464;28;20019;-78
2023/03/28 00:54:11;;;;;;;2.55;2.35;;;;;;;11.74;53.40;98011.44;4973412;28;20034;-78
2023/03/28 00:56:40;;;;;;;5.30;4.00;;;;;;;11.74;53.31;98042.34;4973541;28;20170;-78
2023/03/28 00:59:10;;;;;;;2.28;2.17;;;;;;;11.66;54.18;98040.00;4973171;28;20026;-78
2023/03/28 01:01:36;;;;;;;2.10;2.00;;;;;;;11.84;53.76;98063.81;4988132;28;20043;-79
2023/03/28 01:04:02;;;;;;;1.90;1.80;;;;;;;11.49;53.54;98005.44;4973245;28;20027;-78
2023/03/28 01:06:34;;;;;;;2.10;2.00;;;;;;;11.43;53.89;97987.81;4973064;28;20023;-79
2023/03/28 01:09:03;;;;;;;2.00;1.90;;;;;;;11.84;53.51;98055.06;4973099;28;20023;-78
2023/03/28 01:11:30;;;;;;;1.95;1.85;;;;;;;12.01;53.18;98070.13;4973342;28;20094;-78
2023/03/28 01:13:59;;;;;;;2.25;1.80;;;;;;;11.81;53.57;98082.78;4973171;28;20037;-78
2023/03/28 01:16:25;;;;;;;1.83;1.73;;;;;;;11.23;53.05;97995.97;4973034;28;20026;-78
2023/03/28 01:18:51;;;;;;;1.80;1.70;;;;;;;11.58;53.70;98074.66;4972952;28;20026;-78
2023/03/28 01:21:41;;;;;;;2.35;1.67;;;;;;;11.83;53.06;98085.19;4972962;28;20026;-78
2023/03/28 01:24:39;;;;;;;1.55;1.45;;;;;;;11.41;53.33;98040.91;4972913;28;20106;-79
2023/03/28 01:27:35;;;;;;;1.70;1.50;;;;;;;11.63;53.48;98082.75;4987767;28;20397;-79
2023/03/28 01:30:22;;;;;;;1.88;1.35;;;;;;;11.74;53.24;98093.41;4987840;28;20027;-78
2023/03/28 01:32:56;;;;;;;6.38;1.40;;;;;;;11.60;53.55;98101.69;4972816;28;20504;-78
2023/03/28 01:35:35;;;;;;;1.70;1.60;;;;;;;11.40;54.33;98108.00;4972905;28;20520;-78
2023/03/28 01:38:38;;;;;;;1.60;1.50;;;;;;;11.37;53.20;98057.41;4973136;28;20030;-78
2023/03/28 01:41:32;;;;;;;1.13;1.00;;;;;;;11.63;53.10;98098.59;4972583;28;20027;-79
2023/03/28 01:44:09;;;;;;;1.30;1.20;;;;;;;11.54;53.18;98095.44;4972446;28;20035;-79
2023/03/28 01:46:43;;;;;;;1.20;1.20;;;;;;;11.41;53.97;98080.53;4972392;28;20018;-79
2023/03/28 01:49:19;;;;;;;1.60;1.50;;;;;;;11.50;54.48;98099.56;4972426;28;20424;-78
2023/03/28 01:52:00;;;;;;;1.70;1.60;;;;;;;11.53;54.05;98100.94;4972435;28;20583;-78
2023/03/28 01:55:10;;;;;;;1.90;1.80;;;;;;;11.24;55.07;98084.78;4987420;28;20118;-78
2023/03/28 01:57:41;;;;;;;1.38;1.30;;;;;;;11.34;54.77;98090.38;4972086;28;20062;-78
2023/03/28 02:00:18;;;;;;;2.47;1.88;;;;;;;11.40;55.13;98100.06;4972282;28;20051;-78
2023/03/28 02:03:05;;;;;;;1.70;1.45;;;;;;;11.09;54.74;98055.22;4972325;28;20464;-79
2023/03/28 02:05:33;;;;;;;1.63;1.52;;;;;;;11.48;54.26;98116.66;4990963;28;20510;-78
2023/03/28 02:08:01;;;;;;;1.60;1.50;;;;;;;10.98;55.00;98062.03;4976397;28;20492;-79
2023/03/28 02:10:30;;;;;;;1.85;1.70;;;;;;;10.48;55.00;98018.97;4976351;28;20419;-78
2023/03/28 02:12:59;;;;;;;2.42;2.22;;;;;;;10.83;55.34;98101.16;4976452;28;20031;-78
2023/03/28 02:15:27;;;;;;;1.88;1.77;;;;;;;10.67;55.10;98089.28;4976638;28;20034;-78
2023/03/28 02:18:00;;;;;;;2.63;1.92;;;;;;;10.96;54.86;98169.69;4976365;28;20027;-78
2023/03/28 02:20:29;;;;;;;2.00;1.88;;;;;;;10.40;54.79;98106.28;4976294;28;20081;-78
2023/03/28 02:23:21;;;;;;;2.00;1.80;;;;;;;10.11;54.17;98068.88;4976031;28;20035;-78
2023/03/28 02:25:47;;;;;;;2.00;1.90;;;;;;;10.51;54.05;98142.56;4976276;28;20030;-78
2023/03/28 02:28:14;;;;;;;2.40;2.20;;;;;;;9.94;53.41;98088.03;4976339;28;20089;-80
2023/03/28 02:30:39;;;;;;;2.42;2.05;;;;;;;9.87;52.88;98096.75;4976226;28;20038;-78
2023/03/28 02:33:10;;;;;;;2.00;1.80;;;;;;;9.48;52.07;98052.88;4976075;28;20491;-78
2023/03/28 02:35:52;;;;;;;2.42;1.77;;;;;;;9.74;51.25;98110.00;4976048;28;20105;-78
2023/03/28 02:38:27;;;;;;;1.40;1.30;;;;;;;9.80;49.31;98108.34;4975891;28;20031;-78
2023/03/28 02:41:34;;;;;;;1.38;1.27;;;;;;;10.08;48.49;98185.31;4975777;28;20050;-78
2023/03/28 02:44:31;;;;;;;1.42;1.33;;;;;;;10.05;48.68;98184.94;4975803;28;20031;-79
2023/03/28 02:47:07;;;;;;;1.75;1.50;;;;;;;9.91;49.19;98168.34;4974912;28;20074;-78
2023/03/28 02:50:13;;;;;;;2.38;2.00;;;;;;;9.85;49.18;98191.06;4975822;28;20030;-79
2023/03/28 02:52:50;;;;;;;2.47;2.28;;;;;;;9.67;49.71;98204.06;4967560;28;20500;-78
2023/03/28 02:55:32;;;;;;;1.50;1.40;;;;;;;9.05;48.53;98080.72;4975775;28;20031;-78
2023/03/28 02:58:13;;;;;;;2.72;1.40;;;;;;;9.48;48.65;98212.78;4990547;28;20506;-78
2023/03/28 03:00:39;;;;;;;1.85;1.40;;;;;;;9.71;48.47;98207.91;4974038;28;20054;-81
2023/03/28 03:03:09;;;;;;;2.15;1.10;;;;;;;9.59;47.89;98211.34;4975781;28;20085;-80
2023/03/28 03:05:35;;;;;;;2.20;1.25;;;;;;;8.88;47.82;98098.72;4990243;28;20082;-79
2023/03/28 03:08:01;;;;;;;1.42;1.33;;;;;;;8.96;47.40;98134.59;4975203;28;20026;-80
2023/03/28 03:10:26;;;;;;;1.58;1.38;;;;;;;8.84;48.13;98129.91;4975260;28;20499;-79
2023/03/28 03:12:52;;;;;;;1.38;1.27;;;;;;;9.00;48.00;98131.34;4975403;28;20026;-80
2023/03/28 03:15:18;;;;;;;1.70;1.45;;;;;;;8.73;48.35;98109.44;4972971;28;20035;-78
2023/03/28 03:17:44;;;;;;;1.40;1.00;;;;;;;9.46;48.47;98238.50;4975240;28;20057;-78
2023/03/28 03:20:09;;;;;;;5.22;2.42;;;;;;;9.07;48.30;98145.31;4975456;28;20029;-78
2023/03/28 03:22:35;;;;;;;1.80;1.48;;;;;;;9.45;48.27;98210.56;4990116;28;20027;-79
2023/03/28 03:25:06;;;;;;;1.50;1.23;;;;;;;8.99;48.47;98163.94;4975166;28;20030;-78
2023/03/28 03:27:33;;;;;;;1.63;1.47;;;;;;;8.76;48.46;98153.78;4975330;28;20431;-80
2023/03/28 03:29:59;;;;;;;1.50;1.40;;;;;;;8.49;48.48;98112.66;4975078;28;20030;-78
2023/03/28 03:32:25;;;;;;;1.92;1.40;;;;;;;8.82;48.39;98189.00;4974830;28;20093;-80
2023/03/28 03:34:50;;;;;;;1.52;1.40;;;;;;;9.10;48.49;98244.97;4974864;28;20129;-80
2023/03/28 03:37:16;;;;;;;1.50;1.40;;;;;;;9.21;48.47;98222.50;4974917;28;20027;-78
2023/03/28 03:39:43;;;;;;;1.42;1.33;;;;;;;9.06;47.93;98225.31;4974717;28;20089;-80
2023/03/28 03:42:09;;;;;;;2.05;1.48;;;;;;;8.55;48.14;98148.69;4974513;28;20027;-78
2023/03/28 03:44:34;;;;;;;1.60;1.50;;;;;;;8.38;48.43;98145.59;4974592;28;20054;-79
2023/03/28 03:47:00;;;;;;;1.80;1.70;;;;;;;8.88;47.87;98240.84;4974616;28;20058;-79
2023/03/28 03:49:25;;;;;;;1.75;1.65;;;;;;;8.63;47.72;98221.34;4974611;28;20150;-78
2023/03/28 03:51:50;;;;;;;2.08;1.85;;;;;;;8.81;47.81;98243.47;4974440;28;20409;-79
2023/03/28 03:54:16;;;;;;;1.90;1.80;;;;;;;8.14;47.67;98125.84;4974385;28;20031;-78
2023/03/28 03:56:41;;;;;;;2.15;2.05;;;;;;;8.77;47.22;98218.56;4974489;28;20034;-78
2023/03/28 03:59:07;;;;;;;3.45;2.00;;;;;;;8.32;47.26;98158.69;4974412;28;20031;-79
2023/03/28 04:01:33;;;;;;;10.32;2.33;;;;;;;8.34;46.88;98173.31;4974420;28;20489;-80
2023/03/28 04:03:58;;;;;;;2.70;2.15;;;;;;;8.62;46.98;98259.19;4974464;28;20065;-79
2023/03/28 04:06:24;;;;;;;3.15;2.03;;;;;;;7.91;47.25;98144.56;4974120;28;20034;-78
2023/03/28 04:08:53;;;;;;;2.83;2.50;;;;;;;7.72;47.60;98163.66;4974160;28;20027;-80
2023/03/28 04:11:18;;;;;;;4.05;2.83;;;;;;;7.87;47.45;98189.81;4973975;28;20070;-80
2023/03/28 04:13:44;;;;;;;4.47;2.45;;;;;;;7.49;47.38;98182.31;4973921;28;20035;-78
2023/03/28 04:16:10;;;;;;;3.40;2.70;;;;;;;7.97;47.44;98251.53;4974550;28;20031;-78
2023/03/28 04:18:36;;;;;;;2.95;2.75;;;;;;;8.24;47.05;98270.13;4974138;28;20420;-78
2023/03/28 04:21:02;;;;;;;3.72;2.90;;;;;;;7.82;47.33;98221.13;4974066;28;20038;-79
2023/03/28 04:23:27;;;;;;;3.10;2.67;;;;;;;7.94;47.27;98259.81;4973846;28;20105;-78
2023/03/28 04:25:57;;;;;;;2.85;2.65;;;;;;;7.84;47.80;98248.00;4974014;28;20030;-80
2023/03/28 04:28:24;;;;;;;2.80;2.60;;;;;;;7.87;47.73;98279.16;4988927;28;20065;-79
2023/03/28 04:30:56;;;;;;;3.30;3.08;;;;;;;7.86;47.09;98285.41;4974056;28;20089;-78
2023/03/28 04:33:32;;;;;;;3.28;3.00;;;;;;;7.92;47.49;98274.94;4972653;28;20053;-78
2023/03/28 04:36:00;;;;;;;5.15;3.50;;;;;;;7.90;47.16;98308.50;4973753;28;20030;-79
2023/03/28 04:38:28;;;;;;;3.20;3.00;;;;;;;7.61;46.94;98243.00;4973816;28;20037;-78
2023/03/28 04:40:57;;;;;;;2.92;2.72;;;;;;;7.48;46.71;98225.34;4973693;28;20105;-78
2023/03/28 04:43:25;;;;;;;3.42;3.13;;;;;;;7.54;46.94;98266.59;4973646;28;20029;-80
2023/03/28 04:45:51;;;;;;;8.60;3.28;;;;;;;7.34;47.23;98221.75;4973635;28;20049;-80
2023/03/28 04:48:16;;;;;;;3.72;3.13;;;;;;;7.65;47.02;98287.09;4973443;28;20022;-78
2023/03/28 04:50:42;;;;;;;4.43;3.60;;;;;;;7.95;47.34;98349.97;4973576;28;20562;-78
2023/03/28 04:53:07;;;;;;;3.58;3.28;;;;;;;7.28;47.15;98196.25;4988440;28;20463;-80
2023/03/28 04:55:33;;;;;;;4.13;3.47;;;;;;;7.80;47.25;98294.06;4973353;28;20575;-80
2023/03/28 04:57:58;;;;;;;3.45;3.15;;;;;;;7.86;47.29;98314.31;4973316;28;20030;-79
2023/03/28 05:00:24;;;;;;;4.20;2.95;;;;;;;7.64;46.83;98329.31;4973092;28;20050;-79
2023/03/28 05:02:53;;;;;;;4.85;3.17;;;;;;;7.85;47.28;98370.50;4973210;28;20546;-79
2023/03/28 05:05:19;;;;;;;4.07;3.10;;;;;;;7.48;46.66;98245.53;4973159;28;20526;-78
2023/03/28 05:07:45;;;;;;;3.55;3.33;;;;;;;7.86;46.93;98330.09;4973057;28;20031;-78
2023/03/28 05:10:10;;;;;;;3.60;3.30;;;;;;;7.67;47.59;98296.59;4970493;28;20041;-78
2023/03/28 05:12:35;;;;;;;5.57;3.75;;;;;;;7.93;47.68;98341.47;4997313;28;20022;-78
2023/03/28 05:15:01;;;;;;;3.55;3.25;;;;;;;7.68;47.29;98338.44;5004311;28;20043;-80
2023/03/28 05:17:27;;;;;;;3.67;3.30;;;;;;;7.60;47.31;98326.25;4975495;28;20044;-79
2023/03/28 05:19:52;;;;;;;4.50;3.22;;;;;;;7.84;47.19;98363.63;4972163;28;20118;-78
2023/03/28 05:22:17;;;;;;;4.75;3.63;;;;;;;7.82;47.23;98366.44;4986831;28;20038;-78
2023/03/28 05:24:43;;;;;;;3.75;3.35;;;;;;;7.82;47.12;98363.00;4982195;28;20027;-78
2023/03/28 05:27:08;;;;;;;6.90;3.80;;;;;;;7.72;47.06;98352.00;4974384;28;20035;-78
2023/03/28 05:29:34;;;;;;;4.60;4.20;;;;;;;7.27;46.33;98297.03;4972903;28;20081;-77
2023/03/28 05:31:59;;;;;;;3.97;3.50;;;;;;;7.72;46.57;98388.78;4972983;28;20134;-79
2023/03/28 05:34:27;;;;;;;4.28;3.30;;;;;;;7.23;46.73;98295.78;4983958;28;20411;-77
2023/03/28 05:36:52;;;;;;;4.35;3.40;;;;;;;7.69;46.91;98350.56;4971527;28;20062;-80
2023/03/28 05:39:18;;;;;;;3.92;3.10;;;;;;;7.43;45.93;98332.75;4987630;28;20124;-78
2023/03/28 05:41:43;;;;;;;4.80;3.28;;;;;;;7.78;46.51;98374.91;4968687;28;20030;-79
2023/03/28 05:44:08;;;;;;;3.10;2.80;;;;;;;7.69;46.43;98373.41;4985289;28;20416;-79
2023/03/28 05:46:34;;;;;;;3.15;2.63;;;;;;;7.59;45.70;98329.06;4972246;28;20046;-78
2023/03/28 05:48:59;;;;;;;3.85;3.28;;;;;;;7.01;45.60;98265.28;4971858;28;20418;-79
2023/03/28 05:51:25;;;;;;;3.40;3.10;;;;;;;7.91;45.79;98402.09;4967830;28;20042;-78
2023/03/28 05:53:50;;;;;;;3.45;2.53;;;;;;;7.83;46.28;98394.34;4969491;28;20031;-78
2023/03/28 05:56:16;;;;;;;3.30;2.80;;;;;;;7.53;46.17;98337.69;4984883;28;20475;-78
2023/03/28 05:58:41;;;;;;;2.80;2.60;;;;;;;7.26;45.65;98263.09;4971388;28;20030;-80
2023/03/28 06:01:07;;;;;;;3.80;2.53;;;;;;;7.82;45.54;98379.59;4972020;28;20522;-77
2023/03/28 06:03:32;;;;;;;2.30;2.10;;;;;;;7.77;45.38;98376.72;4972137;28;20106;-80
2023/03/28 06:05:58;;;;;;;4.18;2.42;;;;;;;7.62;44.95;98336.56;4971436;28;20496;-78
2023/03/28 06:08:25;;;;;;;3.80;2.25;;;;;;;8.05;45.57;98412.72;4969181;28;20105;-77
2023/03/28 06:10:51;;;;;;;3.33;2.40;;;;;;;7.80;45.37;98433.31;4968911;28;20031;-80
2023/03/28 06:13:16;;;;;;;3.63;2.42;;;;;;;7.83;45.70;98409.31;4969745;28;20027;-80
2023/03/28 06:15:42;;;;;;;6.18;3.05;;;;;;;7.97;45.51;98421.56;4970133;28;20431;-79
2023/03/28 06:18:07;;;;;;;2.50;2.13;;;;;;;8.21;44.77;98388.81;4971114;28;20038;-82
2023/03/28 06:20:35;;;;;;;3.75;2.53;;;;;;;7.77;44.61;98371.47;4970532;28;20034;-83
2023/03/28 06:23:02;;;;;;;2.90;1.98;;;;;;;8.24;44.19;98436.59;4971891;28;20041;-82
2023/03/28 06:25:27;;;;;;;3.50;2.10;;;;;;;8.24;44.15;98420.81;4972078;28;20026;-82
2023/03/28 06:27:53;;;;;;;3.55;2.00;;;;;;;7.91;44.27;98417.06;4970982;28;20085;-83
2023/03/28 06:30:18;;;;;;;3.35;2.50;;;;;;;7.69;44.33;98355.81;4971940;28;20567;-80
2023/03/28 06:32:44;;;;;;;3.85;2.80;;;;;;;7.98;44.05;98407.41;4975165;28;20023;-83
2023/03/28 06:35:10;;;;;;;4.55;2.53;;;;;;;8.39;43.87;98436.53;4972088;28;20460;-82
2023/03/28 06:37:35;;;;;;;2.65;2.40;;;;;;;8.03;43.76;98378.75;4971843;28;20058;-84
2023/03/28 06:40:00;;;;;;;2.92;1.98;;;;;;;8.01;43.70;98387.81;4970459;28;20031;-83
2023/03/28 06:42:26;;;;;;;1.85;1.75;;;;;;;8.32;43.19;98425.13;4970050;28;20031;-83
2023/03/28 06:44:51;;;;;;;3.83;3.00;;;;;;;8.22;43.11;98419.38;4971829;28;20393;-81
2023/03/28 06:47:17;;;;;;;2.30;2.10;;;;;;;7.89;42.95;98354.19;4971854;28;20548;-84
2023/03/28 06:49:42;;;;;;;2.47;1.88;;;;;;;8.07;42.87;98380.00;4985439;28;20560;-83
2023/03/28 06:52:08;;;;;;;5.95;2.00;;;;;;;6.85;42.67;98195.47;4972327;28;20026;-83
2023/03/28 06:54:34;;;;;;;4.75;1.70;;;;;;;7.98;42.19;98355.66;4971290;28;20069;-82
2023/03/28 06:56:59;;;;;;;3.60;1.70;;;;;;;8.36;42.05;98409.78;4972143;28;20491;-82
2023/03/28 06:59:25;;;;;;;2.92;1.75;;;;;;;8.52;41.59;98436.63;4974043;28;20047;-79
2023/03/28 07:01:50;;;;;;;1.80;1.70;;;;;;;8.28;41.91;98387.06;4988648;28;20030;-81
2023/03/28 07:04:16;;;;;;;4.80;1.90;;;;;;;8.82;42.15;98453.00;4989152;28;20478;-83
2023/03/28 07:06:41;;;;;;;2.05;1.60;;;;;;;8.52;41.95;98402.41;4973706;28;20483;-83
2023/03/28 07:09:07;;;;;;;2.17;1.60;;;;;;;8.79;41.88;98478.91;4972840;28;20562;-83
2023/03/28 07:11:32;;;;;;;3.25;1.70;;;;;;;8.50;42.08;98462.31;4977184;28;20027;-83
2023/03/28 07:13:57;;;;;;;3.20;1.60;;;;;;;8.62;41.95;98462.59;4974380;28;20035;-80
2023/03/28 07:16:23;;;;;;;3.92;1.80;;;;;;;8.60;41.67;98467.22;4976696;28;20100;-82
2023/03/28 07:18:48;;;;;;;3.05;1.80;;;;;;;8.90;41.21;98508.13;4987746;28;20034;-81
2023/03/28 07:21:16;;;;;;;2.97;1.80;;;;;;;7.26;41.32;98300.66;4972327;28;20042;-81
2023/03/28 07:23:43;;;;;;;4.55;1.92;;;;;;;8.70;41.73;98467.72;4973291;28;20436;-82
2023/03/28 07:26:10;;;;;;;6.30;2.13;;;;;;;8.81;41.22;98498.75;4970178;28;20578;-79
2023/03/28 07:28:36;;;;;;;12.73;3.45;;;;;;;8.45;41.41;98433.13;4998035;28;20038;-76
2023/03/28 07:31:05;;;;;;;3.05;1.77;;;;;;;9.00;41.33;98533.34;4968665;28;20045;-75
2023/03/28 07:33:32;;;;;;;4.13;1.95;;;;;;;8.55;41.03;98506.47;4972595;28;20480;-75
2023/03/28 07:35:58;;;;;;;3.65;2.22;;;;;;;8.90;41.17;98468.66;4971569;28;20031;-76
2023/03/28 07:38:24;;;;;;;6.93;2.25;;;;;;;9.11;40.21;98536.25;4973587;28;20038;-76
2023/03/28 07:40:49;;;;;;;5.45;2.40;;;;;;;8.97;39.56;98531.09;4986127;28;20132;-76
2023/03/28 07:43:15;;;;;;;4.28;2.50;;;;;;;9.01;39.25;98504.19;4972448;28;20070;-76
2023/03/28 07:45:40;;;;;;;5.22;2.28;;;;;;;8.66;39.40;98442.78;4970079;28;20038;-76
2023/03/28 07:48:06;;;;;;;3.38;2.50;;;;;;;9.16;39.83;98519.84;4972731;28;20034;-76
2023/03/28 07:50:32;;;;;;;3.58;2.70;;;;;;;9.25;39.67;98505.53;4971300;28;20034;-77
2023/03/28 07:52:58;;;;;;;20.10;3.25;;;;;;;9.03;39.07;98485.56;4972335;28;20027;-77
2023/03/28 07:55:24;;;;;;;6.20;2.30;;;;;;;9.43;38.82;98539.25;4973138;28;20098;-76
2023/03/28 07:57:50;;;;;;;2.60;2.40;;;;;;;8.86;38.61;98435.00;4974224;28;20027;-75
2023/03/28 08:00:16;;;;;;;5.68;4.50;;;;;;;8.98;38.87;98457.19;4973675;28;20039;-76
2023/03/28 08:02:42;;;;;;;5.07;3.25;;;;;;;9.46;38.92;98538.84;4970633;28;20039;-76
2023/03/28 08:05:08;;;;;;;6.25;3.47;;;;;;;9.43;39.07;98534.78;4974039;28;20037;-76
2023/03/28 08:07:34;;;;;;;4.40;3.05;;;;;;;9.61;39.03;98544.81;4973211;28;20031;-76
2023/03/28 08:10:00;;;;;;;7.03;2.50;;;;;;;9.30;38.83;98518.91;4970203;28;20039;-76
2023/03/28 08:12:27;;;;;;;3.97;2.40;;;;;;;9.56;39.16;98579.66;4971030;28;20045;-78
2023/03/28 08:14:52;;;;;;;3.50;2.67;;;;;;;9.38;39.01;98533.75;4975411;28;20081;-77
2023/03/28 08:17:18;;;;;;;2.67;2.47;;;;;;;9.39;39.17;98519.56;4969897;28;20034;-77
2023/03/28 08:19:44;;;;;;;3.78;2.50;;;;;;;9.31;38.86;98525.81;4969465;28;20070;-77
2023/03/28 08:22:11;;;;;;;2.30;2.10;;;;;;;9.81;37.97;98587.91;4969950;28;20027;-77
2023/03/28 08:24:36;;;;;;;4.65;2.65;;;;;;;9.20;38.01;98542.97;4969199;28;20045;-76
2023/03/28 08:27:03;;;;;;;3.28;2.30;;;;;;;9.60;38.48;98619.59;4969843;28;20492;-77
2023/03/28 08:29:29;;;;;;;4.30;3.13;;;;;;;9.72;38.46;98607.53;4971216;28;20035;-77
2023/03/28 08:31:55;;;;;;;3.30;2.42;;;;;;;9.37;38.02;98575.09;4970289;28;20038;-76
2023/03/28 08:34:20;;;;;;;3.30;2.65;;;;;;;9.35;37.79;98568.38;4970765;28;20022;-76
2023/03/28 08:36:46;;;;;;;3.25;2.60;;;;;;;9.46;37.81;98595.00;4972383;28;20062;-76
2023/03/28 08:39:11;;;;;;;3.53;2.47;;;;;;;8.96;38.16;98518.94;4971861;28;20397;-75
2023/03/28 08:42:18;;;;;;;4.15;3.17;;;;;;;9.78;37.58;98617.28;4971401;28;20035;-76
2023/03/28 08:44:52;;;;;;;3.40;3.10;;;;;;;9.81;38.16;98627.44;4959208;28;20051;-75
2023/03/28 08:47:25;;;;;;;3.28;2.75;;;;;;;9.83;37.95;98637.81;4968174;28;20214;-76
2023/03/28 08:50:00;;;;;;;3.00;2.80;;;;;;;9.57;37.52;98617.34;4986812;28;20045;-75
2023/03/28 08:52:27;;;;;;;3.08;2.72;;;;;;;9.90;38.09;98645.75;4986886;28;20101;-75
2023/03/28 08:55:05;;;;;;;3.53;2.95;;;;;;;9.53;37.10;98545.78;4999315;28;20041;-77
2023/03/28 08:57:33;;;;;;;2.95;2.67;;;;;;;10.39;36.23;98654.28;5001166;28;20101;-76
2023/03/28 09:00:23;;;;;;;3.40;2.92;;;;;;;10.45;36.93;98665.91;4974356;28;20061;-76
2023/03/28 09:02:49;;;;;;;5.57;3.63;;;;;;;10.30;36.72;98600.06;4999299;28;20041;-76
2023/03/28 09:05:21;;;;;;;4.82;3.58;;;;;;;10.55;36.36;98676.09;4972384;28;20102;-76
2023/03/28 09:07:59;;;;;;;;;;;;;;;10.98;36.60;98664.16;4985573;28;20114;-76
2023/03/28 09:10:50;;;;;;;2.80;2.45;;;;;;;11.16;35.81;98695.31;4969710;28;20067;-77
2023/03/28 09:13:30;;;;;;;2.88;2.60;;;;;;;11.01;34.35;98718.44;4976682;28;20029;-76
2023/03/28 09:16:31;;;;;;;2.40;2.20;;;;;;;11.26;34.53;98677.22;4962127;28;20045;-76
2023/03/28 09:19:29;;;;;;;3.90;2.23;;;;;;;11.44;34.71;98692.47;4971837;28;20030;-76
2023/03/28 09:22:23;;;;;;;3.03;2.30;;;;;;;11.90;34.44;98705.69;4972026;28;20108;-76
2023/03/28 09:25:01;;;;;;;2.58;2.35;;;;;;;11.72;33.69;98666.59;4972752;28;20066;-76
2023/03/28 09:27:29;;;;;;;2.85;2.65;;;;;;;12.05;33.75;98708.91;4972656;28;20034;-76
2023/03/28 09:30:01;;;;;;;3.65;2.75;;;;;;;12.11;33.73;98693.22;4971573;28;20027;-76
2023/03/28 09:32:31;;;;;;;3.47;2.75;;;;;;;11.59;33.45;98644.66;4972021;28;20069;-76
2023/03/28 09:34:58;;;;;;;2.88;2.22;;;;;;;11.86;33.45;98691.22;4971866;28;20026;-76
2023/03/28 09:37:40;;;;;;;3.75;2.63;;;;;;;11.69;33.54;98729.66;4972663;28;20419;-76
2023/03/28 09:40:24;;;;;;;;;;;;;;;11.60;33.81;98697.31;4971637;28;20393;-77
2023/03/28 09:42:50;;;;;;;3.05;2.33;;;;;;;12.07;33.66;98712.16;4972210;28;20064;-77
2023/03/28 09:45:29;;;;;;;2.75;2.35;;;;;;;11.83;33.39;98649.31;4970320;28;20105;-77
2023/03/28 09:47:55;;;;;;;3.65;2.63;;;;;;;12.00;32.96;98665.56;4971813;28;20447;-77
2023/03/28 09:50:21;;;;;;;3.97;2.80;;;;;;;12.61;32.28;98726.81;4978018;28;20498;-77
2023/03/28 09:52:49;;;;;;;3.63;2.97;;;;;;;12.78;32.48;98721.88;4970986;28;20109;-77
2023/03/28 09:55:17;;;;;;;3.15;2.95;;;;;;;12.60;32.35;98721.72;4969288;28;20046;-77
2023/03/28 09:58:07;;;;;;;5.57;2.63;;;;;;;12.78;32.27;98750.19;4975374;28;20046;-76
2023/03/28 10:00:41;;;;;;;7.22;2.63;;;;;;;12.98;31.75;98778.19;4971201;28;20432;-77
2023/03/28 10:03:28;;;;;;;4.53;2.75;;;;;;;13.07;31.57;98732.91;4973049;28;20023;-77
2023/03/28 10:05:58;;;;;;;5.70;3.80;;;;;;;13.12;31.51;98678.22;4967150;28;20038;-77
2023/03/28 10:08:33;;;;;;;2.95;2.65;;;;;;;12.97;31.57;98659.19;4971646;28;20055;-77
2023/03/28 10:11:02;;;;;;;4.32;2.50;;;;;;;13.35;31.00;98736.81;4963495;28;20039;-77
2023/03/28 10:13:35;;;;;;;3.17;2.33;;;;;;;13.23;30.94;98762.38;4985135;28;20208;-77
2023/03/28 10:16:02;;;;;;;4.00;2.40;;;;;;;13.25;30.45;98725.06;4972386;28;20511;-77
2023/03/28 10:18:30;;;;;;;3.95;2.60;;;;;;;13.44;30.40;98763.91;4970679;28;20031;-76
2023/03/28 10:20:55;;;;;;;4.53;2.35;;;;;;;13.52;30.35;98746.91;4973208;28;20045;-77
2023/03/28 10:23:23;;;;;;;3.72;2.40;;;;;;;13.64;30.25;98727.41;4971504;28;20113;-77
2023/03/28 10:25:52;;;;;;;3.90;3.20;;;;;;;13.78;29.92;98741.38;4972484;28;20444;-77
2023/03/28 10:28:30;;;;;;;4.50;2.72;;;;;;;14.12;29.16;98771.06;4971047;28;20070;-78
2023/03/28 10:31:00;;;;;;;5.05;2.90;;;;;;;14.18;29.27;98738.34;4973285;28;20039;-77
2023/03/28 10:33:33;;;;;;;5.97;2.85;;;;;;;14.15;29.38;98754.72;4989121;28;20069;-77
2023/03/28 10:36:05;;;;;;;4.82;2.80;;;;;;;14.09;29.50;98752.91;4974402;28;20102;-78
2023/03/28 10:38:50;;;;;;;3.25;2.92;;;;;;;14.18;29.04;98759.59;4967962;28;20034;-77
2023/03/28 10:41:24;;;;;;;3.78;2.63;;;;;;;14.59;28.59;98769.56;4963036;28;20497;-78
2023/03/28 10:43:50;;;;;;;3.17;2.03;;;;;;;14.81;28.32;98781.34;4971306;28;20023;-77
2023/03/28 10:46:20;;;;;;;2.85;2.15;;;;;;;14.85;27.85;98808.31;4973482;28;20030;-77
2023/03/28 10:48:55;;;;;;;2.17;1.90;;;;;;;14.68;27.78;98805.44;4973539;28;20031;-76
2023/03/28 10:51:23;;;;;;;2.05;1.90;;;;;;;14.50;27.42;98761.09;4973414;28;20521;-77
2023/03/28 10:54:00;;;;;;;3.45;1.85;;;;;;;14.64;27.56;98777.69;4973510;28;20019;-77
2023/03/28 10:56:54;;;;;;;4.22;1.88;;;;;;;14.59;27.00;98778.34;4986975;28;20062;-77
2023/03/28 10:59:28;;;;;;;3.03;2.55;;;;;;;14.51;27.55;98785.81;4969950;28;20031;-77
2023/03/28 11:02:24;;;;;;;4.10;2.13;;;;;;;13.99;27.50;98682.56;4973343;28;20105;-76
2023/03/28 11:05:13;;;;;;;2.70;1.90;;;;;;;14.53;27.35;98802.34;4970539;28;20145;-77
2023/03/28 11:07:52;;;;;;;3.53;2.33;;;;;;;14.82;27.58;98788.28;4976387;28;20166;-76
2023/03/28 11:10:40;;;;;;;2.88;1.92;;;;;;;14.99;27.75;98793.03;4974829;28;20439;-77
2023/03/28 11:13:12;;;;;;;6.57;2.20;;;;;;;15.00;27.23;98816.72;5005134;28;20432;-77
2023/03/28 11:15:56;;;;;;;4.70;2.00;;;;;;;15.06;26.45;98778.59;4973615;28;20575;-77
2023/03/28 11:18:43;;;;;;;2.15;1.80;;;;;;;15.32;26.66;98800.53;4961672;28;20057;-76
2023/03/28 11:21:46;;;;;;;4.75;1.80;;;;;;;15.38;25.20;98770.38;4971795;28;20038;-76
2023/03/28 11:24:14;;;;;;;10.43;5.35;;;;;;;15.62;25.54;98777.44;4971549;28;20562;-76
2023/03/28 11:27:01;;;;;;;4.03;3.30;;;;;;;15.78;25.91;98782.06;4990689;28;20573;-77
2023/03/28 11:29:30;;;;;;;2.90;2.70;;;;;;;15.60;26.34;98789.31;4971999;28;20027;-77
2023/03/28 11:32:23;;;;;;;5.57;2.95;;;;;;;15.91;24.92;98751.75;4973400;28;20489;-77
2023/03/28 11:35:20;;;;;;;4.43;2.10;;;;;;;15.98;25.39;98765.75;4973525;28;20137;-77
2023/03/28 11:37:52;;;;;;;3.78;2.20;;;;;;;15.86;25.01;98767.63;4952546;28;20058;-77
2023/03/28 11:40:56;;;;;;;2.97;1.80;;;;;;;15.83;25.21;98813.31;4970109;28;20499;-77
2023/03/28 11:43:31;;;;;;;6.55;2.38;;;;;;;15.32;25.09;98793.38;4972752;28;20514;-76
2023/03/28 11:46:08;;;;;;;5.47;2.33;;;;;;;15.15;25.02;98753.31;4972786;28;20482;-77
2023/03/28 11:48:42;;;;;;;2.08;1.88;;;;;;;15.44;25.58;98793.41;4978354;28;20550;-77
2023/03/28 11:51:37;;;;;;;2.35;2.10;;;;;;;15.49;24.60;98828.13;5003412;28;20073;-76
2023/03/28 11:54:26;;;;;;;5.05;2.08;;;;;;;15.39;24.45;98806.59;4966064;28;20050;-77
2023/03/28 11:57:14;;;;;;;3.15;2.30;;;;;;;15.65;24.91;98824.06;4968508;28;20488;-77
2023/03/28 11:59:48;;;;;;;3.00;1.98;;;;;;;15.76;24.94;98821.41;4973765;28;20138;-76